sensor_id;sensor_type;location;lat;lon;timestamp;pressure;altitude;pressure_sealevel;temperature;humidity
42887;BME280;29032;56.028;92.904;2024-03-29T00:02:53;99281.94;;;-2.17;51.79
42887;BME280;29032;56.028;92.904;2024-03-29T00:08:14;99293.28;;;-2.09;51.88
42887;BME280;29032;56.028;92.904;2024-03-29T00:13:17;99282.22;;;-1.86;51.24
42887;BME280;29032;56.028;92.904;2024-03-29T00:18:20;99264.16;;;-1.92;51.28
42887;BME280;29032;56.028;92.904;2024-03-29T00:23:22;99255.47;;;-1.91;51.08
42887;BME280;29032;56.028;92.904;2024-03-29T00:28:44;99256.31;;;-1.70;50.15
42887;BME280;29032;56.028;92.904;2024-03-29T00:33:46;99248.09;;;-1.99;51.49
42887;BME280;29032;56.028;92.904;2024-03-29T00:38:48;99248.94;;;-2.08;51.35
42887;BME280;29032;56.028;92.904;2024-03-29T00:43:51;99259.25;;;-2.03;51.15
42887;BME280;29032;56.028;92.904;2024-03-29T00:48:54;99258.66;;;-2.07;50.98
42887;BME280;29032;56.028;92.904;2024-03-29T00:53:56;99243.34;;;-1.99;51.69
42887;BME280;29032;56.028;92.904;2024-03-29T00:58:59;99244.66;;;-1.79;51.39
42887;BME280;29032;56.028;92.904;2024-03-29T01:04:02;99238.91;;;-1.81;50.38
42887;BME280;29032;56.028;92.904;2024-03-29T01:09:04;99248.91;;;-1.78;50.97
42887;BME280;29032;56.028;92.904;2024-03-29T01:14:08;99223.84;;;-1.71;50.92
42887;BME280;29032;56.028;92.904;2024-03-29T01:24:30;99220.25;;;-1.77;50.34
42887;BME280;29032;56.028;92.904;2024-03-29T01:29:34;99212.72;;;-1.82;50.77
42887;BME280;29032;56.028;92.904;2024-03-29T01:34:36;99193.22;;;-1.84;51.08
42887;BME280;29032;56.028;92.904;2024-03-29T01:39:38;99189.31;;;-1.98;51.64
42887;BME280;29032;56.028;92.904;2024-03-29T01:44:42;99187.78;;;-1.99;51.69
42887;BME280;29032;56.028;92.904;2024-03-29T01:49:44;99191.75;;;-2.15;52.08
42887;BME280;29032;56.028;92.904;2024-03-29T01:54:47;99188.06;;;-1.97;52.15
42887;BME280;29032;56.028;92.904;2024-03-29T01:59:52;99182.09;;;-1.81;51.61
42887;BME280;29032;56.028;92.904;2024-03-29T02:04:54;99174.09;;;-1.64;52.34
42887;BME280;29032;56.028;92.904;2024-03-29T02:09:57;99158.53;;;-1.52;51.64
42887;BME280;29032;56.028;92.904;2024-03-29T02:15:01;99173.28;;;-1.50;52.15
42887;BME280;29032;56.028;92.904;2024-03-29T02:20:03;99148.94;;;-1.63;52.00
42887;BME280;29032;56.028;92.904;2024-03-29T02:25:08;99149.31;;;-1.35;51.70
42887;BME280;29032;56.028;92.904;2024-03-29T02:30:13;99148.19;;;-1.22;51.82
42887;BME280;29032;56.028;92.904;2024-03-29T02:35:15;99145.94;;;-1.24;51.37
42887;BME280;29032;56.028;92.904;2024-03-29T02:40:19;99152.31;;;-1.12;51.73
42887;BME280;29032;56.028;92.904;2024-03-29T02:45:22;99148.09;;;-1.08;51.58
42887;BME280;29032;56.028;92.904;2024-03-29T02:50:24;99157.13;;;-0.81;51.71
42887;BME280;29032;56.028;92.904;2024-03-29T02:55:28;99145.66;;;-0.54;50.83
42887;BME280;29032;56.028;92.904;2024-03-29T03:00:30;99138.78;;;-0.69;51.44
42887;BME280;29032;56.028;92.904;2024-03-29T03:05:32;99140.72;;;-0.76;51.27
42887;BME280;29032;56.028;92.904;2024-03-29T03:10:36;99135.13;;;-0.61;51.00
42887;BME280;29032;56.028;92.904;2024-03-29T03:15:38;99133.81;;;-0.65;50.27
42887;BME280;29032;56.028;92.904;2024-03-29T03:20:40;99129.19;;;-0.54;50.53
42887;BME280;29032;56.028;92.904;2024-03-29T03:25:43;99129.69;;;-0.55;50.37
42887;BME280;29032;56.028;92.904;2024-03-29T03:30:46;99123.50;;;-0.44;50.89
42887;BME280;29032;56.028;92.904;2024-03-29T03:35:48;99112.81;;;-0.42;49.68
42887;BME280;29032;56.028;92.904;2024-03-29T03:40:52;99109.31;;;-0.43;49.98
42887;BME280;29032;56.028;92.904;2024-03-29T03:46:00;99100.25;;;-0.49;49.87
42887;BME280;29032;56.028;92.904;2024-03-29T03:51:03;99094.22;;;-0.53;49.58
42887;BME280;29032;56.028;92.904;2024-03-29T03:56:07;99084.63;;;-0.32;49.57
42887;BME280;29032;56.028;92.904;2024-03-29T04:01:09;99079.94;;;-0.26;49.80
42887;BME280;29032;56.028;92.904;2024-03-29T04:06:11;99066.09;;;-0.05;48.96
42887;BME280;29032;56.028;92.904;2024-03-29T04:11:15;99075.31;;;-0.08;48.08
42887;BME280;29032;56.028;92.904;2024-03-29T04:16:17;99069.66;;;0.01;47.70
42887;BME280;29032;56.028;92.904;2024-03-29T04:21:19;99068.47;;;0.13;47.79
42887;BME280;29032;56.028;92.904;2024-03-29T04:26:23;99070.53;;;0.29;47.14
42887;BME280;29032;56.028;92.904;2024-03-29T04:31:25;99050.81;;;0.37;48.09
42887;BME280;29032;56.028;92.904;2024-03-29T04:36:27;99040.09;;;0.50;46.95
42887;BME280;29032;56.028;92.904;2024-03-29T04:41:31;99051.13;;;0.50;46.70
42887;BME280;29032;56.028;92.904;2024-03-29T04:46:33;99058.13;;;0.51;47.06
42887;BME280;29032;56.028;92.904;2024-03-29T04:51:35;99055.00;;;0.26;46.66
42887;BME280;29032;56.028;92.904;2024-03-29T04:56:39;99054.03;;;0.29;47.03
42887;BME280;29032;56.028;92.904;2024-03-29T05:01:41;99033.59;;;0.42;46.75
42887;BME280;29032;56.028;92.904;2024-03-29T05:06:43;99027.38;;;0.58;47.48
42887;BME280;29032;56.028;92.904;2024-03-29T05:11:47;99038.41;;;0.69;46.41
42887;BME280;29032;56.028;92.904;2024-03-29T05:16:49;99022.91;;;0.88;52.70
42887;BME280;29032;56.028;92.904;2024-03-29T05:21:51;98995.63;;;0.91;45.81
42887;BME280;29032;56.028;92.904;2024-03-29T05:26:55;98999.88;;;0.97;45.92
42887;BME280;29032;56.028;92.904;2024-03-29T05:31:57;98996.41;;;0.85;45.31
42887;BME280;29032;56.028;92.904;2024-03-29T05:36:59;98997.41;;;0.94;45.69
42887;BME280;29032;56.028;92.904;2024-03-29T05:42:03;98972.38;;;1.08;45.53
42887;BME280;29032;56.028;92.904;2024-03-29T05:47:06;98953.59;;;1.07;45.44
42887;BME280;29032;56.028;92.904;2024-03-29T05:52:08;98935.78;;;0.97;44.70
42887;BME280;29032;56.028;92.904;2024-03-29T05:57:11;98928.53;;;0.82;46.66
42887;BME280;29032;56.028;92.904;2024-03-29T06:02:14;98941.06;;;0.83;44.80
42887;BME280;29032;56.028;92.904;2024-03-29T06:07:16;98941.53;;;0.76;45.77
42887;BME280;29032;56.028;92.904;2024-03-29T06:12:20;98961.34;;;0.86;46.07
42887;BME280;29032;56.028;92.904;2024-03-29T06:17:22;98977.88;;;0.86;44.80
42887;BME280;29032;56.028;92.904;2024-03-29T06:22:24;98985.13;;;1.00;45.46
42887;BME280;29032;56.028;92.904;2024-03-29T06:27:28;98981.13;;;1.24;44.95
42887;BME280;29032;56.028;92.904;2024-03-29T06:32:30;98951.81;;;1.15;44.79
42887;BME280;29032;56.028;92.904;2024-03-29T06:37:33;98963.09;;;1.17;45.33
42887;BME280;29032;56.028;92.904;2024-03-29T06:42:36;98950.31;;;1.25;44.38
42887;BME280;29032;56.028;92.904;2024-03-29T06:47:38;98951.06;;;1.09;45.76
42887;BME280;29032;56.028;92.904;2024-03-29T06:52:41;98961.34;;;1.08;45.37
42887;BME280;29032;56.028;92.904;2024-03-29T06:57:44;98959.59;;;1.05;44.79
42887;BME280;29032;56.028;92.904;2024-03-29T07:02:46;98972.63;;;0.94;44.78
42887;BME280;29032;56.028;92.904;2024-03-29T07:07:49;98958.34;;;1.06;45.40
42887;BME280;29032;56.028;92.904;2024-03-29T07:12:52;98952.34;;;0.91;45.01
42887;BME280;29032;56.028;92.904;2024-03-29T07:17:55;98950.06;;;0.78;45.10
42887;BME280;29032;56.028;92.904;2024-03-29T07:22:57;98964.84;;;0.86;45.80
42887;BME280;29032;56.028;92.904;2024-03-29T07:28:01;98983.38;;;0.97;45.10
42887;BME280;29032;56.028;92.904;2024-03-29T07:33:03;98953.59;;;1.07;45.02
42887;BME280;29032;56.028;92.904;2024-03-29T07:38:05;98944.03;;;1.25;45.05
42887;BME280;29032;56.028;92.904;2024-03-29T07:43:09;98960.34;;;1.11;45.08
42887;BME280;29032;56.028;92.904;2024-03-29T07:48:12;98962.09;;;1.09;45.38
42887;BME280;29032;56.028;92.904;2024-03-29T07:53:15;98963.59;;;1.10;45.23
42887;BME280;29032;56.028;92.904;2024-03-29T07:58:18;98953.34;;;1.05;46.23
42887;BME280;29032;56.028;92.904;2024-03-29T08:08:41;98949.84;;;0.93;46.65
42887;BME280;29032;56.028;92.904;2024-03-29T08:13:44;98945.56;;;0.86;47.93
42887;BME280;29032;56.028;92.904;2024-03-29T08:18:47;98949.56;;;0.74;47.42
42887;BME280;29032;56.028;92.904;2024-03-29T08:23:49;98934.28;;;0.62;47.78
42887;BME280;29032;56.028;92.904;2024-03-29T08:28:53;98934.03;;;0.66;48.12
42887;BME280;29032;56.028;92.904;2024-03-29T08:33:55;98928.03;;;0.61;48.70
42887;BME280;29032;56.028;92.904;2024-03-29T08:38:57;98946.06;;;0.57;48.33
42887;BME280;29032;56.028;92.904;2024-03-29T08:44:01;98952.31;;;0.63;49.12
42887;BME280;29032;56.028;92.904;2024-03-29T08:49:04;98939.78;;;0.56;49.58
42887;BME280;29032;56.028;92.904;2024-03-29T08:54:06;98937.53;;;0.55;50.23
42887;BME280;29032;56.028;92.904;2024-03-29T08:59:10;98941.56;;;0.65;50.49
42887;BME280;29032;56.028;92.904;2024-03-29T09:04:12;98936.28;;;0.61;50.44
42887;BME280;29032;56.028;92.904;2024-03-29T09:09:32;98928.78;;;0.62;51.27
42887;BME280;29032;56.028;92.904;2024-03-29T09:14:36;98934.75;;;0.55;50.59
42887;BME280;29032;56.028;92.904;2024-03-29T09:19:38;98930.03;;;0.61;51.61
42887;BME280;29032;56.028;92.904;2024-03-29T09:24:40;98927.78;;;0.59;51.21
42887;BME280;29032;56.028;92.904;2024-03-29T09:29:47;98918.03;;;0.75;50.95
42887;BME280;29032;56.028;92.904;2024-03-29T09:34:49;98921.53;;;1.04;49.46
42887;BME280;29032;56.028;92.904;2024-03-29T09:39:51;98928.06;;;0.78;51.77
42887;BME280;29032;56.028;92.904;2024-03-29T09:44:56;98929.28;;;0.88;51.74
42887;BME280;29032;56.028;92.904;2024-03-29T09:50:00;98937.31;;;0.70;53.01
42887;BME280;29032;56.028;92.904;2024-03-29T09:55:04;98929.56;;;0.79;52.28
42887;BME280;29032;56.028;92.904;2024-03-29T10:00:10;98932.56;;;0.93;52.90
42887;BME280;29032;56.028;92.904;2024-03-29T10:05:13;98937.06;;;1.07;52.75
42887;BME280;29032;56.028;92.904;2024-03-29T10:10:16;98931.78;;;1.09;53.25
42887;BME280;29032;56.028;92.904;2024-03-29T10:15:20;98939.31;;;1.03;53.88
42887;BME280;29032;56.028;92.904;2024-03-29T10:20:22;98930.56;;;0.99;54.91
42887;BME280;29032;56.028;92.904;2024-03-29T10:25:24;98938.81;;;0.99;54.43
42887;BME280;29032;56.028;92.904;2024-03-29T10:30:28;98939.81;;;1.07;53.96
42887;BME280;29032;56.028;92.904;2024-03-29T10:35:30;98939.06;;;1.12;54.18
42887;BME280;29032;56.028;92.904;2024-03-29T10:40:32;98948.06;;;1.18;54.60
42887;BME280;29032;56.028;92.904;2024-03-29T10:45:36;98961.06;;;1.46;53.90
42887;BME280;29032;56.028;92.904;2024-03-29T10:50:39;98968.81;;;1.53;53.71
42887;BME280;29032;56.028;92.904;2024-03-29T10:55:42;98973.84;;;1.49;53.55
42887;BME280;29032;56.028;92.904;2024-03-29T11:00:47;98987.34;;;1.52;53.55
42887;BME280;29032;56.028;92.904;2024-03-29T11:05:50;98988.09;;;1.64;53.79
42887;BME280;29032;56.028;92.904;2024-03-29T11:10:56;99006.66;;;1.63;53.91
42887;BME280;29032;56.028;92.904;2024-03-29T11:16:01;99015.41;;;1.67;53.90
42887;BME280;29032;56.028;92.904;2024-03-29T11:21:03;99011.66;;;1.54;54.90
42887;BME280;29032;56.028;92.904;2024-03-29T11:26:07;99019.41;;;1.66;54.45
42887;BME280;29032;56.028;92.904;2024-03-29T11:31:13;99017.38;;;1.78;54.71
42887;BME280;29032;56.028;92.904;2024-03-29T11:36:16;99027.16;;;1.68;54.15
42887;BME280;29032;56.028;92.904;2024-03-29T11:41:20;99022.69;;;1.54;54.88
42887;BME280;29032;56.028;92.904;2024-03-29T11:46:25;99027.22;;;1.34;55.45
42887;BME280;29032;56.028;92.904;2024-03-29T11:51:27;99021.19;;;1.25;55.55
42887;BME280;29032;56.028;92.904;2024-03-29T11:56:30;99024.22;;;1.21;55.98
42887;BME280;29032;56.028;92.904;2024-03-29T12:01:34;99025.94;;;1.19;55.95
42887;BME280;29032;56.028;92.904;2024-03-29T12:06:37;99032.97;;;1.14;56.14
42887;BME280;29032;56.028;92.904;2024-03-29T12:11:39;99024.47;;;1.29;55.07
42887;BME280;29032;56.028;92.904;2024-03-29T12:16:46;99020.69;;;1.49;55.23
42887;BME280;29032;56.028;92.904;2024-03-29T12:21:48;99023.19;;;1.52;54.86
42887;BME280;29032;56.028;92.904;2024-03-29T12:26:50;99007.91;;;1.57;54.93
42887;BME280;29032;56.028;92.904;2024-03-29T12:37:21;99031.41;;;1.75;54.46
42887;BME280;29032;56.028;92.904;2024-03-29T12:42:23;99028.69;;;1.58;54.65
42887;BME280;29032;56.028;92.904;2024-03-29T12:47:27;99029.72;;;1.55;54.87
42887;BME280;29032;56.028;92.904;2024-03-29T12:52:36;99012.66;;;1.62;54.22
42887;BME280;29032;56.028;92.904;2024-03-29T12:57:39;99016.66;;;1.61;54.15
42887;BME280;29032;56.028;92.904;2024-03-29T13:02:43;99017.16;;;1.76;54.30
42887;BME280;29032;56.028;92.904;2024-03-29T13:07:45;99018.38;;;1.75;54.48
42887;BME280;29032;56.028;92.904;2024-03-29T13:12:48;99020.66;;;1.71;53.66
42887;BME280;29032;56.028;92.904;2024-03-29T13:17:52;98997.34;;;1.61;54.62
42887;BME280;29032;56.028;92.904;2024-03-29T13:22:55;98990.63;;;1.62;54.23
42887;BME280;29032;56.028;92.904;2024-03-29T13:27:57;98983.09;;;1.57;54.35
42887;BME280;29032;56.028;92.904;2024-03-29T13:33:01;98986.81;;;1.70;53.95
42887;BME280;29032;56.028;92.904;2024-03-29T13:38:03;98996.59;;;1.66;54.10
42887;BME280;29032;56.028;92.904;2024-03-29T13:43:06;98988.88;;;1.48;54.20
42887;BME280;29032;56.028;92.904;2024-03-29T13:48:09;98979.88;;;1.47;54.75
42887;BME280;29032;56.028;92.904;2024-03-29T13:53:11;98982.63;;;1.47;54.59
42887;BME280;29032;56.028;92.904;2024-03-29T13:58:14;98979.81;;;1.58;54.06
42887;BME280;29032;56.028;92.904;2024-03-29T14:03:17;98980.56;;;1.70;54.34
42887;BME280;29032;56.028;92.904;2024-03-29T14:08:19;98982.06;;;1.71;53.73
42887;BME280;29032;56.028;92.904;2024-03-29T14:13:22;98976.03;;;1.78;53.68
42887;BME280;29032;56.028;92.904;2024-03-29T14:18:25;98972.72;;;1.91;53.47
42887;BME280;29032;56.028;92.904;2024-03-29T14:23:28;98964.47;;;1.91;53.09
42887;BME280;29032;56.028;92.904;2024-03-29T14:28:30;98958.19;;;1.90;53.44
42887;BME280;29032;56.028;92.904;2024-03-29T14:33:34;98967.47;;;1.87;53.66
42887;BME280;29032;56.028;92.904;2024-03-29T14:38:36;98954.50;;;1.71;53.44
42887;BME280;29032;56.028;92.904;2024-03-29T14:43:38;98950.75;;;1.68;53.85
42887;BME280;29032;56.028;92.904;2024-03-29T14:48:42;98957.47;;;1.79;53.81
42887;BME280;29032;56.028;92.904;2024-03-29T14:53:44;98953.97;;;1.78;53.93
42887;BME280;29032;56.028;92.904;2024-03-29T14:58:46;98954.72;;;1.67;53.53
42887;BME280;29032;56.028;92.904;2024-03-29T15:03:50;98952.72;;;1.68;53.63
42887;BME280;29032;56.028;92.904;2024-03-29T15:08:53;98955.75;;;1.76;53.45
42887;BME280;29032;56.028;92.904;2024-03-29T15:13:55;98955.97;;;1.78;53.43
42887;BME280;29032;56.028;92.904;2024-03-29T15:18:59;98967.00;;;1.83;53.79
42887;BME280;29032;56.028;92.904;2024-03-29T15:24:01;98961.00;;;1.68;53.96
42887;BME280;29032;56.028;92.904;2024-03-29T15:29:04;98969.03;;;1.66;54.16
42887;BME280;29032;56.028;92.904;2024-03-29T15:34:08;98985.28;;;1.81;54.06
42887;BME280;29032;56.028;92.904;2024-03-29T15:39:10;98973.03;;;1.76;53.70
42887;BME280;29032;56.028;92.904;2024-03-29T15:44:12;98979.53;;;1.73;53.80
42887;BME280;29032;56.028;92.904;2024-03-29T15:49:16;98984.81;;;1.82;53.67
42887;BME280;29032;56.028;92.904;2024-03-29T15:54:18;98985.28;;;1.75;53.91
42887;BME280;29032;56.028;92.904;2024-03-29T15:59:38;98977.53;;;1.68;54.25
42887;BME280;29032;56.028;92.904;2024-03-29T16:04:42;98982.53;;;1.75;54.45
42887;BME280;29032;56.028;92.904;2024-03-29T16:09:44;98986.31;;;1.66;54.24
42887;BME280;29032;56.028;92.904;2024-03-29T16:14:46;98985.56;;;1.66;55.15
42887;BME280;29032;56.028;92.904;2024-03-29T16:19:50;98989.31;;;1.74;55.12
42887;BME280;29032;56.028;92.904;2024-03-29T16:24:52;98986.84;;;1.65;55.25
42887;BME280;29032;56.028;92.904;2024-03-29T16:30:13;98990.09;;;1.58;54.63
42887;BME280;29032;56.028;92.904;2024-03-29T16:35:17;98986.09;;;1.59;55.26
42887;BME280;29032;56.028;92.904;2024-03-29T16:40:19;98977.34;;;1.55;55.08
42887;BME280;29032;56.028;92.904;2024-03-29T16:45:21;98982.09;;;1.49;55.99
42887;BME280;29032;56.028;92.904;2024-03-29T16:50:25;98968.06;;;1.47;55.86
42887;BME280;29032;56.028;92.904;2024-03-29T16:55:27;98983.09;;;1.46;56.59
42887;BME280;29032;56.028;92.904;2024-03-29T17:00:29;98991.38;;;1.57;55.77
42887;BME280;29032;56.028;92.904;2024-03-29T17:05:33;98988.56;;;1.68;55.74
42887;BME280;29032;56.028;92.904;2024-03-29T17:10:35;98984.59;;;1.69;55.52
42887;BME280;29032;56.028;92.904;2024-03-29T17:15:37;98993.31;;;1.73;55.29
42887;BME280;29032;56.028;92.904;2024-03-29T17:20:41;98991.03;;;1.88;55.71
42887;BME280;29032;56.028;92.904;2024-03-29T17:25:43;98991.28;;;1.90;55.35
42887;BME280;29032;56.028;92.904;2024-03-29T17:30:46;98993.81;;;1.83;54.90
42887;BME280;29032;56.028;92.904;2024-03-29T17:35:49;98991.06;;;1.77;55.22
42887;BME280;29032;56.028;92.904;2024-03-29T17:46:12;98999.84;;;1.76;55.33
42887;BME280;29032;56.028;92.904;2024-03-29T17:51:15;99009.63;;;1.82;55.25
42887;BME280;29032;56.028;92.904;2024-03-29T17:56:18;99016.13;;;1.85;55.48
42887;BME280;29032;56.028;92.904;2024-03-29T18:01:21;99007.34;;;1.86;55.57
42887;BME280;29032;56.028;92.904;2024-03-29T18:06:25;99017.09;;;1.98;55.57
42887;BME280;29032;56.028;92.904;2024-03-29T18:11:27;99017.34;;;1.95;55.10
42887;BME280;29032;56.028;92.904;2024-03-29T18:16:29;99018.38;;;1.92;55.33
42887;BME280;29032;56.028;92.904;2024-03-29T18:21:33;99015.31;;;1.95;55.65
42887;BME280;29032;56.028;92.904;2024-03-29T18:26:35;99020.38;;;1.86;55.01
42887;BME280;29032;56.028;92.904;2024-03-29T18:31:37;99021.41;;;1.71;56.07
42887;BME280;29032;56.028;92.904;2024-03-29T18:36:41;99021.66;;;1.68;56.08
42887;BME280;29032;56.028;92.904;2024-03-29T18:41:43;99021.94;;;1.64;56.19
42887;BME280;29032;56.028;92.904;2024-03-29T18:46:45;99022.44;;;1.68;55.94
42887;BME280;29032;56.028;92.904;2024-03-29T18:51:50;99033.19;;;1.72;56.03
42887;BME280;29032;56.028;92.904;2024-03-29T18:56:52;99028.69;;;1.63;55.81
42887;BME280;29032;56.028;92.904;2024-03-29T19:01:54;99027.69;;;1.61;56.05
42887;BME280;29032;56.028;92.904;2024-03-29T19:06:58;99023.44;;;1.60;56.77
42887;BME280;29032;56.028;92.904;2024-03-29T19:12:00;99014.44;;;1.37;56.97
42887;BME280;29032;56.028;92.904;2024-03-29T19:17:02;99026.22;;;1.37;56.88
42887;BME280;29032;56.028;92.904;2024-03-29T19:22:06;99028.19;;;1.54;57.12
42887;BME280;29032;56.028;92.904;2024-03-29T19:27:08;99017.69;;;1.47;57.12
42887;BME280;29032;56.028;92.904;2024-03-29T19:32:10;99026.44;;;1.39;56.83
42887;BME280;29032;56.028;92.904;2024-03-29T19:37:14;99028.22;;;1.42;56.91
42887;BME280;29032;56.028;92.904;2024-03-29T19:47:36;99032.22;;;1.30;57.09
42887;BME280;29032;56.028;92.904;2024-03-29T19:52:40;99035.50;;;1.40;56.81
42887;BME280;29032;56.028;92.904;2024-03-29T19:57:42;99029.22;;;1.39;57.22
42887;BME280;29032;56.028;92.904;2024-03-29T20:03:03;99029.47;;;1.47;57.03
42887;BME280;29032;56.028;92.904;2024-03-29T20:08:07;99033.47;;;1.57;57.32
42887;BME280;29032;56.028;92.904;2024-03-29T20:13:10;99035.94;;;1.61;57.24
42887;BME280;29032;56.028;92.904;2024-03-29T20:18:12;99030.19;;;1.59;56.80
42887;BME280;29032;56.028;92.904;2024-03-29T20:23:17;99042.25;;;1.56;56.71
42887;BME280;29032;56.028;92.904;2024-03-29T20:28:19;99045.47;;;1.60;57.18
42887;BME280;29032;56.028;92.904;2024-03-29T20:33:21;99048.25;;;1.71;56.96
42887;BME280;29032;56.028;92.904;2024-03-29T20:38:25;99043.19;;;1.86;56.65
42887;BME280;29032;56.028;92.904;2024-03-29T20:43:27;99048.97;;;1.83;55.92
42887;BME280;29032;56.028;92.904;2024-03-29T20:48:29;99047.44;;;1.87;56.58
42887;BME280;29032;56.028;92.904;2024-03-29T20:53:33;99053.94;;;1.95;55.99
42887;BME280;29032;56.028;92.904;2024-03-29T20:58:35;99059.97;;;1.94;56.05
42887;BME280;29032;56.028;92.904;2024-03-29T21:03:37;99051.22;;;1.84;55.91
42887;BME280;29032;56.028;92.904;2024-03-29T21:08:41;99054.22;;;1.86;56.53
42887;BME280;29032;56.028;92.904;2024-03-29T21:13:43;99052.22;;;1.87;55.84
42887;BME280;29032;56.028;92.904;2024-03-29T21:18:45;99051.75;;;1.83;56.03
42887;BME280;29032;56.028;92.904;2024-03-29T21:23:49;99060.75;;;1.61;56.93
42887;BME280;29032;56.028;92.904;2024-03-29T21:28:51;99066.31;;;1.50;56.68
42887;BME280;29032;56.028;92.904;2024-03-29T21:33:53;99046.25;;;1.43;57.61
42887;BME280;29032;56.028;92.904;2024-03-29T21:38:57;99049.25;;;1.46;57.10
42887;BME280;29032;56.028;92.904;2024-03-29T21:43:59;99057.25;;;1.32;57.13
42887;BME280;29032;56.028;92.904;2024-03-29T21:49:01;99060.28;;;1.34;57.08
42887;BME280;29032;56.028;92.904;2024-03-29T21:54:05;99058.78;;;1.33;56.89
42887;BME280;29032;56.028;92.904;2024-03-29T21:59:07;99065.78;;;1.23;57.17
42887;BME280;29032;56.028;92.904;2024-03-29T22:04:09;99069.03;;;1.22;57.97
42887;BME280;29032;56.028;92.904;2024-03-29T22:09:13;99067.03;;;1.22;58.00
42887;BME280;29032;56.028;92.904;2024-03-29T22:14:16;99067.53;;;1.09;58.39
42887;BME280;29032;56.028;92.904;2024-03-29T22:19:18;99070.03;;;1.13;57.89
42887;BME280;29032;56.028;92.904;2024-03-29T22:24:22;99067.28;;;1.24;57.63
42887;BME280;29032;56.028;92.904;2024-03-29T22:29:24;99060.03;;;1.21;57.94
42887;BME280;29032;56.028;92.904;2024-03-29T22:34:26;99057.25;;;1.32;57.79
42887;BME280;29032;56.028;92.904;2024-03-29T22:39:29;99056.53;;;1.49;57.32
42887;BME280;29032;56.028;92.904;2024-03-29T22:44:32;99055.50;;;1.52;56.89
42887;BME280;29032;56.028;92.904;2024-03-29T22:49:34;99065.28;;;1.53;56.36
42887;BME280;29032;56.028;92.904;2024-03-29T22:54:37;99060.53;;;1.64;56.90
42887;BME280;29032;56.028;92.904;2024-03-29T22:59:39;99063.03;;;1.57;56.13
42887;BME280;29032;56.028;92.904;2024-03-29T23:04:42;99059.28;;;1.54;56.64
42887;BME280;29032;56.028;92.904;2024-03-29T23:09:45;99062.78;;;1.66;56.45
42887;BME280;29032;56.028;92.904;2024-03-29T23:14:47;99068.06;;;1.64;56.08
42887;BME280;29032;56.028;92.904;2024-03-29T23:19:51;99073.81;;;1.66;56.23
42887;BME280;29032;56.028;92.904;2024-03-29T23:24:55;99065.53;;;1.66;56.60
42887;BME280;29032;56.028;92.904;2024-03-29T23:29:57;99065.28;;;1.64;55.64
42887;BME280;29032;56.028;92.904;2024-03-29T23:34:59;99065.25;;;1.75;55.00
42887;BME280;29032;56.028;92.904;2024-03-29T23:40:04;99074.78;;;1.85;54.81
42887;BME280;29032;56.028;92.904;2024-03-29T23:45:06;99070.03;;;1.86;54.26
42887;BME280;29032;56.028;92.904;2024-03-29T23:50:08;99070.75;;;1.97;53.98
42887;BME280;29032;56.028;92.904;2024-03-29T23:55:12;99066.75;;;2.04;53.57
